Historyczne dane pomiarowe

Dodano dane terminowe – wersja testowa.

Dane z okresu 1951-2019

Wersja bazy: 1.34 [2019-03-16, lista zmian], aktualizacja planowana na 2019-04-15

Dane meteo z obszaru Polski uzyskane na podstawie danych udostępnionych przez Instytut Meteorologii i Gospodarki Wodnej – Państwowy Instytut Badawczy.

 

Wybierz Datę:    

       

TemperaturaWilgotnośćWiatrCiśnienieOpadyŚniegCzas trwania zjawisk
 Stacja t tx tn tng RH VA  wxwx mslp ppp RRR   cm mm wxwxwxwxwxwxwx
2019-06-29 14.0 18.3 9.7--- 4.0 1.7---- 0.0------------
2019-06-28 11.8 16.7 8.4--- 5.3 2.0---- 0.0------------
2019-06-27 19.9 24.8 16.1--- 4.0 1.7---- 0.0------------
2019-06-26 20.1 27.3 13.3--- 2.7 0.3---- 0.0------------
2019-06-25 18.0 24.3 10.3--- 2.7 1.0---- 0.0------------
2019-06-24 14.7 16.9 12.6--- 6.0 1.3---- 0.0------------
2019-06-23 13.9 17.2 10.3--- 8.0 1.7---- 14.2------------
2019-06-22 13.9 17.2 10.2--- 7.7 0.7---- 1.5------------
2019-06-21 15.2 19.9 11.6--- 7.0 0.3---- 7.8------------
2019-06-20 14.8 19.1 11.9--- 7.0 0.3---- 6.5------------
2019-06-19 16.2 23.0 11.2--- 5.7 0.3---- 13.0------------
2019-06-18 13.0 18.7 6.5--- 6.3 0.3---- 0.6------------
2019-06-17 12.1 15.0 10.0--- 5.7 1.0---- 16.7------------
2019-06-16 18.4 25.7 12.7--- 5.3 0.3---- 22.4------------
2019-06-15 21.8 29.0 13.8--- 2.7 0.7---- 0.0------------
2019-06-14 21.1 26.3 16.5--- 4.3 1.3---- 0.0------------
2019-06-13 21.1 27.3 14.2--- 0.3 0.7---- 0.0------------
2019-06-12 19.9 24.7 13.7--- 0.3 2.0---- 0.0------------
2019-06-11 20.3 25.0 15.2--- 0.3 1.3---- 0.0------------
2019-06-10 18.7 25.4 10.8--- 1.7 1.0---- 0.0------------
2019-06-09 14.9 20.1 9.8--- 3.0 0.7---- 0.0------------
2019-06-08 15.8 21.2 9.6--- 4.7 0.7---- 0.0------------
2019-06-07 13.9 19.3 8.6--- 7.0 0.3---- 0.1------------
2019-06-06 14.1 19.2 9.8--- 6.3 0.7---- 7.0------------
2019-06-05 14.7 19.9 8.4--- 5.0 1.0---- 0.2------------
2019-06-04 14.7 19.7 9.3--- 2.7 0.3---- 0.1------------
2019-06-03 14.3 19.2 6.9--- 3.0 1.0---- 0.0------------
2019-06-02 13.4 18.5 8.9--- 4.7 1.0---- 0.0------------
2019-06-01 10.9 15.7 5.0--- 7.0 1.7---- 0.0------------
2019-05-31 8.3 11.8 4.0--- 7.0 0.7---- 0.0------------
2019-05-30 5.4 6.3 4.5--- 8.0 0.7---- 6.9------------
2019-05-29 7.8 10.1 6.0--- 8.0 1.7---- 11.3------------
2019-05-28 11.1 13.8 9.2--- 6.7 1.0---- 9.5------------
2019-05-27 13.1 17.3 7.9--- 3.7 1.7---- 5.8------------
2019-05-26 11.5 16.6 5.6--- 5.7 0.3---- 0.0------------
2019-05-25 9.5 15.1 4.6--- 1.0 0.7---- 0.0------------
2019-05-24 6.9 8.2 5.3--- 8.0 0.3---- 7.6------------
2019-05-23 6.5 8.1 5.6--- 8.0 0.3---- 25.1------------
2019-05-22 8.4 11.0 6.8--- 8.0 0.0---- 38.2------------
2019-05-21 9.2 12.7 4.9--- 8.0 0.7---- 20.9------------
2019-05-20 10.9 14.2 8.9--- 6.0 1.3---- 0.8------------
2019-05-19 12.2 17.0 6.0--- 3.7 0.3---- 8.2------------
2019-05-18 10.9 17.3 5.0--- 4.0 1.0---- 0.7------------
2019-05-17 7.9 12.8 2.6--- 6.0 0.7---- 0.6------------
2019-05-16 6.1 12.4 1.1--- 3.0 1.0---- 0.0------------
2019-05-15 1.3 2.8 -0.4--- 8.0 0.0---- 6.8-- 11---------
2019-05-14 -0.3 0.9 -1.7--- 8.0 1.3---- 7.1-- 10---------
2019-05-13 2.7 6.8 0.7--- 7.3 1.7---- 10.6------------
2019-05-12 9.2 14.5 6.0--- 8.0 1.0---- 9.7------------
2019-05-11 7.7 13.3 3.6--- 5.7 0.7---- 1.4------------
2019-05-10 6.4 11.0 1.6--- 6.3 0.7---- 0.3------------
2019-05-09 3.3 5.4 2.5--- 8.0 2.0---- 5.3------------
2019-05-08 2.9 8.3 -2.6--- 4.0 1.0---- 1.8-- 5---------
2019-05-07 0.1 2.8 -2.0--- 8.0 1.0---- 1.4-- 15---------
2019-05-06 -1.4 -0.4 -2.2--- 8.0 1.0---- 14.1-- 8---------
2019-05-05 0.9 5.4 -1.0--- 8.0 1.7---- 8.6------------
2019-05-04 4.4 8.8 -0.5--- 5.7 0.3---- 0.6------------
2019-05-03 6.4 9.0 4.1--- 8.0 0.0---- 10.5------------
2019-05-02 6.7 11.8 2.2--- 6.0 1.0---- 0.2------------
2019-05-01 5.7 9.3 3.9--- 6.0 1.7---- 2.9------------
291.6 ms

 

Źródłem pochodzenia danych jest Instytut Meteorologii i Gospodarki Wodnej – Państwowy Instytut Badawczy. Dane Instytutu Meteorologii i Gospodarki Wodnej – Państwowego Instytutu Badawczego zostały przetworzone.

Dane źródłowe można odnaleźć na stronie https://dane.imgw.pl